RPMR METAR and TAF | Updated Today

RPMR METAR

General Santos International Airport

Observation time: 14 min. ago

RPMR 200800Z 19008KT 160V220 9999 FEW018 SCT080 30/22 Q1008 RMK A2977

Need help? Read our tutorial on how to read METARs or read the parsed version below.

General Santos International Airport (RPMR) METAR

  • Weather conditions on Fri, 20 May 2022 08:00:00 +0000 (14 min. ago):
  • Present conditions: Dry
  • Clouds: A few at 549 meters; scattered at 2438 meters
  • Visibility: Greater than 10 km
  • Wind: 190 degrees at 8 knots
  • Temperature: 30 celsius
  • Dew point: 22 celsius
  • Pressure: 1008 millibars
  • Remarks: A2977


Useful to know...

RPMR TAF

General Santos International Airport

TAF RPMR 200500Z 2006/2106 01007KT 9999 FEW018 SCT080 TEMPO 2006/2012 18005KT -SHRA FEW018CB BKN080
Observation time: 3:14 hr. ago
Need help? Read our tutorial on how to read TAFs or read the parsed version below.

Parsed version of TAF for General Santos International Airport (RPMR)

  • From 20 May at 06:00 UTC, to day 21 of the month at 06:00 UTC
  • Clouds: A few at 549 meters; scattered at 2438 meters
  • Visibility: Greater than 10 km
  • Wind: 10 degrees at 7
  • Expected to arise temporarily, from 20 May at 06:00 UTC, to day 20 of the month at 12:00 UTC
  • Clouds: A few at 549 meters, cumulonimbus; broken sky at 2438 meters
  • Wind: 180 degrees at 5
  • Other: Light showers of rain

Airports near RPMR